createdAt,value
2023-02-28T00:00:38.325Z,98773.28
2023-02-28T00:03:05.326Z,98761.78
2023-02-28T00:05:32.337Z,98749.88
2023-02-28T00:07:59.204Z,98758.84
2023-02-28T00:10:30.045Z,98763.47
2023-02-28T00:13:01.350Z,98772.03
2023-02-28T00:15:28.361Z,98781.75
2023-02-28T00:17:55.369Z,98781.56
2023-02-28T00:20:22.476Z,98780.94
2023-02-28T00:22:52.111Z,98780.25
2023-02-28T00:25:24.967Z,98784.00
2023-02-28T00:27:52.916Z,98783.19
2023-02-28T00:30:22.778Z,98778.38
2023-02-28T00:32:50.529Z,98788.78
2023-02-28T00:35:18.000Z,98793.75
2023-02-28T00:37:44.959Z,98801.38
2023-02-28T00:40:13.405Z,98793.47
2023-02-28T00:42:40.737Z,98784.25
2023-02-28T00:45:09.472Z,98786.44
2023-02-28T00:47:38.650Z,98802.72
2023-02-28T00:50:06.748Z,98791.81
2023-02-28T00:52:33.705Z,98786.88
2023-02-28T00:55:00.696Z,98783.59
2023-02-28T00:57:27.667Z,98778.81
2023-02-28T00:59:55.509Z,98782.00
2023-02-28T01:02:23.744Z,98787.19
2023-02-28T01:04:53.513Z,98787.94
2023-02-28T01:07:20.435Z,98787.19
2023-02-28T01:09:47.377Z,98787.63
2023-02-28T01:12:14.387Z,98783.16
2023-02-28T01:14:41.354Z,98798.53
2023-02-28T01:17:08.541Z,98815.63
2023-02-28T01:19:36.542Z,98830.63
2023-02-28T01:22:06.322Z,98821.00
2023-02-28T01:24:34.557Z,98815.97
2023-02-28T01:27:01.508Z,98813.09
2023-02-28T01:29:28.491Z,98814.44
2023-02-28T01:31:55.542Z,98802.69
2023-02-28T01:34:22.561Z,98806.91
2023-02-28T01:36:49.776Z,98800.38
2023-02-28T01:39:16.950Z,98815.38
2023-02-28T01:41:44.318Z,98827.16
2023-02-28T01:44:48.279Z,98828.84
2023-02-28T01:47:15.919Z,98831.28
2023-02-28T01:49:43.244Z,98818.13
2023-02-28T01:52:16.047Z,98830.03
2023-02-28T01:54:43.078Z,98825.50
2023-02-28T01:57:18.617Z,98803.34
2023-02-28T02:00:09.092Z,98815.44
2023-02-28T02:02:49.661Z,98820.63
2023-02-28T02:05:23.106Z,98823.66
2023-02-28T02:07:55.355Z,98821.97
2023-02-28T02:10:30.282Z,98817.50
2023-02-28T02:13:30.262Z,98828.06
2023-02-28T02:16:26.891Z,98812.88
2023-02-28T02:19:20.103Z,98824.72
2023-02-28T02:21:52.672Z,98823.66
2023-02-28T02:24:40.738Z,98822.34
2023-02-28T02:27:34.415Z,98822.69
2023-02-28T02:30:09.844Z,98818.25
2023-02-28T02:32:39.511Z,98815.66
2023-02-28T02:35:18.511Z,98824.13
2023-02-28T02:38:16.618Z,98824.28
2023-02-28T02:40:54.217Z,98843.31
2023-02-28T02:43:29.801Z,98834.00
2023-02-28T02:46:00.796Z,98841.56
2023-02-28T02:48:32.067Z,98844.91
2023-02-28T02:51:12.988Z,98846.19
2023-02-28T02:53:50.462Z,98851.88
2023-02-28T02:56:22.215Z,98862.25
2023-02-28T02:58:52.132Z,98849.22
2023-02-28T03:01:29.119Z,98837.72
2023-02-28T03:04:04.065Z,98833.44
2023-02-28T03:06:31.258Z,98844.84
2023-02-28T03:08:58.227Z,98836.53
2023-02-28T03:11:25.341Z,98846.47
2023-02-28T03:14:20.102Z,98857.47
2023-02-28T03:16:56.911Z,98865.03
2023-02-28T03:19:33.905Z,98863.03
2023-02-28T03:22:39.656Z,98865.88
2023-02-28T03:25:26.092Z,98874.81
2023-02-28T03:28:03.145Z,98871.94
2023-02-28T03:30:45.101Z,98851.75
2023-02-28T03:33:17.177Z,98861.31
2023-02-28T03:35:49.541Z,98872.00
2023-02-28T03:38:37.206Z,98863.66
2023-02-28T03:41:11.918Z,98865.50
2023-02-28T03:43:42.086Z,98867.13
2023-02-28T03:46:12.959Z,98854.97
2023-02-28T03:48:49.261Z,98842.22
2023-02-28T03:51:24.385Z,98847.03
2023-02-28T03:54:07.679Z,98862.72
2023-02-28T03:56:41.943Z,98871.25
2023-02-28T03:59:19.584Z,98871.09
2023-02-28T04:01:49.111Z,98880.13
2023-02-28T04:04:18.058Z,98893.09
2023-02-28T04:06:45.941Z,98882.00
2023-02-28T04:09:15.281Z,98884.63
2023-02-28T04:11:54.678Z,98886.34
2023-02-28T04:14:21.622Z,98887.53
2023-02-28T04:16:48.860Z,98901.41
2023-02-28T04:19:16.248Z,98902.34
2023-02-28T04:21:46.690Z,98885.59
2023-02-28T04:24:19.180Z,98877.53
2023-02-28T04:26:54.907Z,98882.09
2023-02-28T04:29:35.813Z,98873.47
2023-02-28T04:32:03.973Z,98874.75
2023-02-28T04:34:32.933Z,98862.38
2023-02-28T04:37:17.033Z,98858.25
2023-02-28T04:39:44.726Z,98859.28
2023-02-28T04:42:12.780Z,98862.78
2023-02-28T04:44:39.958Z,98844.31
2023-02-28T04:47:07.096Z,98851.31
2023-02-28T04:49:34.066Z,98840.88
2023-02-28T04:52:01.141Z,98844.63
2023-02-28T04:54:29.467Z,98852.75
2023-02-28T04:56:56.874Z,98856.97
2023-02-28T04:59:23.864Z,98858.56
2023-02-28T05:01:51.050Z,98849.03
2023-02-28T05:04:18.364Z,98859.50
2023-02-28T05:06:45.796Z,98857.13
2023-02-28T05:09:12.861Z,98869.34
2023-02-28T05:11:40.764Z,98875.16
2023-02-28T05:14:15.329Z,98871.84
2023-02-28T05:16:42.609Z,98866.97
2023-02-28T05:19:10.010Z,98880.25
2023-02-28T05:21:42.217Z,98889.94
2023-02-28T05:24:13.180Z,98898.53
2023-02-28T05:26:42.707Z,98896.06
2023-02-28T05:29:10.556Z,98907.97
2023-02-28T05:31:39.211Z,98910.97
2023-02-28T05:34:06.174Z,98920.50
2023-02-28T05:36:33.498Z,98922.56
2023-02-28T05:39:00.630Z,98927.06
2023-02-28T05:41:28.304Z,98934.41
2023-02-28T05:43:55.541Z,98947.03
2023-02-28T05:46:22.653Z,98953.88
2023-02-28T05:48:50.326Z,98975.81
2023-02-28T05:51:18.457Z,98962.97
2023-02-28T05:53:45.714Z,98967.03
2023-02-28T05:56:12.905Z,98963.84
2023-02-28T05:58:39.789Z,98968.44
2023-02-28T06:01:33.889Z,98978.19
2023-02-28T06:04:02.240Z,98973.44
2023-02-28T06:06:30.663Z,98958.34
2023-02-28T06:08:58.205Z,98962.75
2023-02-28T06:11:28.672Z,98971.16
2023-02-28T06:13:57.610Z,98970.53
2023-02-28T06:16:25.594Z,98971.03
2023-02-28T06:18:53.823Z,98975.13
2023-02-28T06:21:20.725Z,98974.66
2023-02-28T06:23:47.660Z,98968.34
2023-02-28T06:26:14.876Z,98953.06
2023-02-28T06:28:41.767Z,98961.16
2023-02-28T06:31:14.676Z,98974.28
2023-02-28T06:33:43.557Z,98975.38
2023-02-28T06:36:12.852Z,98967.31
2023-02-28T06:38:40.231Z,98962.34
2023-02-28T06:41:07.916Z,98966.47
2023-02-28T06:43:38.738Z,98967.53
2023-02-28T06:46:08.545Z,98965.94
2023-02-28T06:48:36.801Z,98971.16
2023-02-28T06:51:07.981Z,98967.72
2023-02-28T06:53:35.162Z,98970.53
2023-02-28T06:56:13.161Z,98974.66
2023-02-28T06:58:40.499Z,98964.19
2023-02-28T07:01:09.148Z,98951.06
2023-02-28T07:03:36.991Z,98957.63
2023-02-28T07:06:05.149Z,98955.13
2023-02-28T07:08:32.859Z,98962.44
2023-02-28T07:11:00.224Z,98967.03
2023-02-28T07:13:27.219Z,98963.13
2023-02-28T07:15:59.738Z,98969.16
2023-02-28T07:18:27.479Z,98968.25
2023-02-28T07:20:54.417Z,98972.59
2023-02-28T07:23:22.040Z,98966.88
2023-02-28T07:25:50.016Z,98971.63
2023-02-28T07:28:17.270Z,98977.78
2023-02-28T07:30:44.381Z,98981.22
2023-02-28T07:33:11.363Z,98969.16
2023-02-28T07:35:38.406Z,98974.06
2023-02-28T07:38:05.653Z,98976.56
2023-02-28T07:40:32.573Z,98965.94
2023-02-28T07:43:01.502Z,98960.84
2023-02-28T07:45:32.889Z,98949.31
2023-02-28T07:47:59.784Z,98957.94
2023-02-28T07:50:27.259Z,98960.75
2023-02-28T07:52:54.318Z,98954.19
2023-02-28T07:55:21.284Z,98951.44
2023-02-28T07:57:48.147Z,98958.63
2023-02-28T08:00:15.307Z,98965.06
2023-02-28T08:02:42.324Z,98965.91
2023-02-28T08:05:09.869Z,98977.94
2023-02-28T08:07:37.069Z,98980.75
2023-02-28T08:10:04.362Z,98986.34
2023-02-28T08:12:31.318Z,98991.38
2023-02-28T08:14:58.222Z,99000.00
2023-02-28T08:17:25.120Z,98992.72
2023-02-28T08:19:52.155Z,99004.66
2023-02-28T08:22:19.044Z,99002.25
2023-02-28T08:24:46.020Z,98996.97
2023-02-28T08:27:12.944Z,98999.34
2023-02-28T08:29:40.353Z,98996.78
2023-02-28T08:32:14.688Z,98991.56
2023-02-28T08:34:48.175Z,98995.38
2023-02-28T08:37:15.247Z,99000.03
2023-02-28T08:39:42.242Z,98997.59
2023-02-28T08:42:09.139Z,99010.09
2023-02-28T08:44:36.070Z,99001.31
2023-02-28T08:47:02.987Z,99002.34
2023-02-28T08:49:29.943Z,99005.72
2023-02-28T08:51:58.253Z,99003.97
2023-02-28T08:54:25.951Z,99005.22
2023-02-28T08:56:53.577Z,99000.41
2023-02-28T08:59:20.735Z,99004.41
2023-02-28T09:01:47.670Z,99015.09
2023-02-28T09:04:18.365Z,99001.63
2023-02-28T09:06:47.259Z,99007.91
2023-02-28T09:09:14.340Z,99011.97
2023-02-28T09:11:41.308Z,99000.88
2023-02-28T09:14:08.735Z,98996.91
2023-02-28T09:16:36.505Z,99002.59
2023-02-28T09:19:03.671Z,99001.53
2023-02-28T09:21:30.757Z,98994.63
2023-02-28T09:23:57.881Z,98994.25
2023-02-28T09:26:32.383Z,98998.88
2023-02-28T09:29:06.185Z,98991.38
2023-02-28T09:31:33.293Z,98999.59
2023-02-28T09:34:00.632Z,99001.72
2023-02-28T09:36:43.217Z,98996.06
2023-02-28T09:39:11.220Z,98999.94
2023-02-28T09:41:48.369Z,99012.63
2023-02-28T09:44:23.963Z,99015.63
2023-02-28T10:17:54.785Z,99031.38
2023-02-28T10:20:32.315Z,99030.56
2023-02-28T10:23:09.133Z,99023.06
2023-02-28T10:25:38.285Z,99015.97
2023-02-28T10:28:15.807Z,99009.91
2023-02-28T10:30:47.442Z,99005.38
2023-02-28T10:33:35.423Z,98991.84
2023-02-28T10:36:03.992Z,98991.81
2023-02-28T10:38:36.941Z,98990.28
2023-02-28T10:41:11.580Z,98984.47
2023-02-28T10:43:40.841Z,98993.47
2023-02-28T10:46:27.127Z,98986.75
2023-02-28T10:49:07.992Z,98984.91
2023-02-28T10:51:40.672Z,98975.50
2023-02-28T10:54:17.587Z,98973.91
2023-02-28T10:56:44.480Z,98967.34
2023-02-28T10:59:30.495Z,98966.16
2023-02-28T11:01:58.399Z,98955.88
2023-02-28T11:04:33.703Z,98942.00
2023-02-28T11:07:19.271Z,98940.81
2023-02-28T11:09:50.369Z,98952.50
2023-02-28T11:12:46.963Z,98950.38
2023-02-28T11:15:24.612Z,98960.94
2023-02-28T11:18:14.804Z,98948.78
2023-02-28T11:20:42.069Z,98955.41
2023-02-28T11:23:15.067Z,98955.19
2023-02-28T11:25:52.590Z,98955.44
2023-02-28T11:28:34.892Z,98956.88
2023-02-28T11:31:07.668Z,98952.31
2023-02-28T11:33:46.126Z,98956.31
2023-02-28T11:36:20.138Z,98942.47
2023-02-28T11:38:50.695Z,98941.06
2023-02-28T11:41:47.759Z,98944.56
2023-02-28T11:44:44.589Z,98939.81
2023-02-28T11:47:16.820Z,98934.53
2023-02-28T11:50:17.632Z,98927.06
2023-02-28T11:52:50.841Z,98930.25
2023-02-28T11:55:32.464Z,98924.94
2023-02-28T11:58:18.009Z,98930.81
2023-02-28T12:01:05.500Z,98925.31
2023-02-28T12:04:05.874Z,98914.66
2023-02-28T12:06:46.943Z,98913.19
2023-02-28T12:09:19.688Z,98908.50
2023-02-28T12:11:52.365Z,98918.09
2023-02-28T12:14:34.696Z,98916.56
2023-02-28T12:17:36.403Z,98926.22
2023-02-28T12:20:15.446Z,98920.41
2023-02-28T12:23:13.242Z,98915.44
2023-02-28T12:26:03.499Z,98928.28
2023-02-28T12:28:37.576Z,98922.69
2023-02-28T12:31:11.129Z,98931.00
2023-02-28T12:33:45.729Z,98927.16
2023-02-28T12:36:20.115Z,98939.81
2023-02-28T12:39:06.258Z,98943.50
2023-02-28T12:41:40.273Z,98937.47
2023-02-28T12:44:13.795Z,98928.91
2023-02-28T12:46:50.007Z,98921.94
2023-02-28T12:49:22.999Z,98919.44
2023-02-28T12:51:51.283Z,98924.72
2023-02-28T12:54:25.712Z,98923.38
2023-02-28T12:57:12.525Z,98917.16
2023-02-28T13:00:03.895Z,98922.53
2023-02-28T13:02:52.632Z,98927.31
2023-02-28T13:05:37.661Z,98926.56
2023-02-28T13:08:41.680Z,98919.34
2023-02-28T13:11:21.041Z,98915.66
2023-02-28T13:13:49.152Z,98917.72
2023-02-28T13:16:16.200Z,98919.84
2023-02-28T13:18:45.722Z,98920.19
2023-02-28T13:21:28.916Z,98927.06
2023-02-28T13:24:05.077Z,98930.56
2023-02-28T13:26:32.003Z,98929.56
2023-02-28T13:29:01.672Z,98930.81
2023-02-28T13:31:29.312Z,98925.81
2023-02-28T13:34:00.160Z,98924.72
2023-02-28T13:36:32.774Z,98928.97
2023-02-28T13:39:24.473Z,98925.69
2023-02-28T13:41:51.381Z,98931.34
2023-02-28T13:44:27.832Z,98930.41
2023-02-28T13:46:54.798Z,98940.41
2023-02-28T13:49:26.022Z,98930.00
2023-02-28T13:52:23.882Z,98915.22
2023-02-28T13:55:14.626Z,98908.75
2023-02-28T13:58:13.951Z,98900.94
2023-02-28T14:01:12.967Z,98901.28
2023-02-28T14:04:12.424Z,98898.91
2023-02-28T14:06:47.934Z,98901.41
2023-02-28T14:09:35.879Z,98900.09
2023-02-28T14:12:39.946Z,98906.44
2023-02-28T14:15:36.605Z,98906.13
2023-02-28T14:18:12.360Z,98902.28
2023-02-28T14:20:42.153Z,98907.97
2023-02-28T14:23:26.540Z,98909.53
2023-02-28T14:26:06.129Z,98907.28
2023-02-28T14:29:00.138Z,98903.31
2023-02-28T14:31:35.837Z,98904.91
2023-02-28T14:34:21.387Z,98904.00
2023-02-28T14:36:49.658Z,98903.97
2023-02-28T14:39:21.532Z,98906.34
2023-02-28T14:41:48.851Z,98914.38
2023-02-28T14:44:18.959Z,98923.06
2023-02-28T14:46:49.546Z,98929.22
2023-02-28T14:49:19.534Z,98923.16
2023-02-28T14:51:48.444Z,98925.97
2023-02-28T14:54:17.809Z,98934.47
2023-02-28T14:56:44.815Z,98922.00
2023-02-28T14:59:35.919Z,98927.81
2023-02-28T15:02:19.405Z,98920.44
2023-02-28T15:04:57.799Z,98926.47
2023-02-28T15:07:29.613Z,98912.03
2023-02-28T15:10:11.497Z,98911.78
2023-02-28T15:12:40.555Z,98911.91
2023-02-28T15:15:15.102Z,98911.44
2023-02-28T15:17:48.001Z,98919.09
2023-02-28T15:20:16.663Z,98912.88
2023-02-28T15:22:45.847Z,98909.41
2023-02-28T15:25:16.690Z,98916.91
2023-02-28T15:27:51.180Z,98917.91
2023-02-28T15:30:21.952Z,98918.84
2023-02-28T15:33:06.153Z,98918.50
2023-02-28T15:35:34.748Z,98914.69
2023-02-28T15:38:17.167Z,98925.78
2023-02-28T15:40:54.580Z,98927.38
2023-02-28T15:43:32.342Z,98933.13
2023-02-28T15:46:09.430Z,98932.94
2023-02-28T15:48:45.009Z,98931.75
2023-02-28T15:51:21.717Z,98930.31
2023-02-28T15:53:55.616Z,98939.88
2023-02-28T15:56:31.997Z,98948.47
2023-02-28T15:59:04.176Z,98950.75
2023-02-28T16:01:35.133Z,98962.19
2023-02-28T16:04:05.508Z,98965.94
2023-02-28T16:06:36.748Z,98971.06
2023-02-28T16:09:05.705Z,98962.59
2023-02-28T16:11:36.410Z,98959.31
2023-02-28T16:14:04.419Z,98967.53
2023-02-28T16:16:33.860Z,98966.03
2023-02-28T16:19:01.084Z,98965.47
2023-02-28T16:21:28.688Z,98958.59
2023-02-28T16:23:56.060Z,98958.78
2023-02-28T16:26:26.123Z,98971.19
2023-02-28T16:28:53.574Z,98963.41
2023-02-28T16:31:21.424Z,98969.78
2023-02-28T16:33:48.678Z,98977.13
2023-02-28T16:36:22.298Z,98987.97
2023-02-28T16:38:49.654Z,98978.56
2023-02-28T16:41:20.544Z,98973.84
2023-02-28T16:43:50.620Z,98983.97
2023-02-28T16:46:18.207Z,98978.03
2023-02-28T16:48:47.170Z,98977.88
2023-02-28T16:51:18.768Z,98983.53
2023-02-28T16:53:46.845Z,98978.84
2023-02-28T16:56:32.239Z,98977.84
2023-02-28T16:59:02.365Z,98977.38
2023-02-28T17:01:30.279Z,98974.25
2023-02-28T17:03:57.885Z,98972.84
2023-02-28T17:06:29.333Z,98967.31
2023-02-28T17:08:58.870Z,98956.06
2023-02-28T17:11:26.699Z,98964.66
2023-02-28T17:13:55.150Z,98959.41
2023-02-28T17:16:36.712Z,98965.88
2023-02-28T17:19:06.830Z,98968.00
2023-02-28T17:21:35.259Z,98967.59
2023-02-28T17:24:02.545Z,98975.75
2023-02-28T17:26:30.188Z,98976.16
2023-02-28T17:28:58.765Z,98979.28
2023-02-28T17:31:27.496Z,98979.41
2023-02-28T17:33:57.887Z,98975.78
2023-02-28T17:36:27.238Z,98983.28
2023-02-28T17:38:56.398Z,98978.63
2023-02-28T17:41:23.826Z,98975.44
2023-02-28T17:43:51.681Z,98974.06
2023-02-28T17:46:24.997Z,98979.69
2023-02-28T17:48:54.161Z,98982.22
2023-02-28T17:51:23.250Z,98976.91
2023-02-28T17:53:50.517Z,98970.31
2023-02-28T17:56:24.345Z,98979.00
2023-02-28T17:58:53.254Z,98989.53
2023-02-28T18:01:25.397Z,98982.25
2023-02-28T18:03:52.988Z,98977.94
2023-02-28T18:06:32.447Z,98988.91
2023-02-28T18:08:59.560Z,98977.09
2023-02-28T18:11:42.188Z,98983.00
2023-02-28T18:14:09.838Z,98985.88
2023-02-28T18:16:37.071Z,98981.31
2023-02-28T18:19:04.258Z,98988.38
2023-02-28T18:21:31.921Z,98985.16
2023-02-28T18:23:59.157Z,98981.94
2023-02-28T18:26:26.647Z,98988.41
2023-02-28T18:28:53.740Z,98984.66
2023-02-28T18:31:21.808Z,98982.78
2023-02-28T18:33:50.639Z,98982.06
2023-02-28T18:36:19.226Z,98984.44
2023-02-28T18:38:46.795Z,98977.56
2023-02-28T18:41:14.055Z,98976.13
2023-02-28T18:43:41.166Z,98974.28
2023-02-28T18:46:11.534Z,98981.63
2023-02-28T18:48:39.609Z,98977.72
2023-02-28T18:51:11.903Z,98974.28
2023-02-28T18:53:40.765Z,98980.78
2023-02-28T18:56:09.760Z,98984.31
2023-02-28T18:58:37.081Z,98978.34
2023-02-28T19:01:13.225Z,98985.38
2023-02-28T19:03:40.381Z,98986.50
2023-02-28T19:06:07.869Z,98993.47
2023-02-28T19:08:34.963Z,98984.50
2023-02-28T19:11:08.409Z,98989.56
2023-02-28T19:13:35.658Z,98988.28
2023-02-28T19:16:04.754Z,98994.66
2023-02-28T19:18:32.377Z,98991.22
2023-02-28T19:20:59.962Z,98990.06
2023-02-28T19:23:27.927Z,98987.75
2023-02-28T19:25:56.712Z,98985.16
2023-02-28T19:28:24.612Z,98992.53
2023-02-28T19:30:53.208Z,98983.06
2023-02-28T19:33:20.980Z,98979.91
2023-02-28T19:35:48.882Z,98976.91
2023-02-28T19:38:17.813Z,98988.34
2023-02-28T19:40:45.655Z,98981.66
2023-02-28T19:43:12.856Z,98977.25
2023-02-28T19:45:40.475Z,98978.63
2023-02-28T19:48:09.959Z,98981.28
2023-02-28T19:50:37.817Z,98980.13
2023-02-28T19:53:05.101Z,98972.66
2023-02-28T19:55:32.302Z,98975.69
2023-02-28T19:57:59.470Z,98970.28
2023-02-28T20:00:26.695Z,98967.69
2023-02-28T20:02:54.027Z,98958.28
2023-02-28T20:05:21.141Z,98958.88
2023-02-28T20:07:48.412Z,98952.19
2023-02-28T20:10:16.213Z,98949.13
2023-02-28T20:12:43.790Z,98945.59
2023-02-28T20:15:11.191Z,98950.75
2023-02-28T20:17:38.898Z,98946.81
2023-02-28T20:20:07.810Z,98934.06
2023-02-28T20:22:38.219Z,98932.47
2023-02-28T20:25:08.282Z,98928.72
2023-02-28T20:27:35.479Z,98925.22
2023-02-28T20:30:02.990Z,98926.81
2023-02-28T20:32:30.398Z,98917.22
2023-02-28T20:34:57.441Z,98918.19
2023-02-28T20:37:24.561Z,98912.16
2023-02-28T20:39:53.256Z,98906.00
2023-02-28T20:42:20.580Z,98910.34
2023-02-28T20:44:47.738Z,98906.66
2023-02-28T20:47:14.975Z,98909.22
2023-02-28T20:49:42.104Z,98909.44
2023-02-28T20:52:09.205Z,98907.88
2023-02-28T20:54:36.333Z,98899.97
2023-02-28T20:57:03.528Z,98895.59
2023-02-28T20:59:30.707Z,98896.16
2023-02-28T21:01:57.803Z,98885.06
2023-02-28T21:04:24.933Z,98893.63
2023-02-28T21:06:52.132Z,98877.66
2023-02-28T21:09:19.505Z,98882.34
2023-02-28T21:11:46.582Z,98881.28
2023-02-28T21:14:15.971Z,98879.72
2023-02-28T21:16:44.840Z,98886.50
2023-02-28T21:19:12.200Z,98879.88
2023-02-28T21:21:44.677Z,98881.53
2023-02-28T21:24:13.929Z,98875.50
2023-02-28T21:26:42.317Z,98877.53
2023-02-28T21:29:09.436Z,98872.47
2023-02-28T21:31:37.278Z,98863.63
2023-02-28T21:34:07.378Z,98867.50
2023-02-28T21:36:45.353Z,98871.25
2023-02-28T21:39:16.709Z,98876.22
2023-02-28T21:41:43.939Z,98868.19
2023-02-28T21:44:18.752Z,98875.69
2023-02-28T21:46:47.767Z,98879.19
2023-02-28T21:49:15.944Z,98877.59
2023-02-28T21:51:43.448Z,98876.22
2023-02-28T21:54:11.225Z,98875.16
2023-02-28T21:56:38.970Z,98876.06
2023-02-28T21:59:09.403Z,98872.47
2023-02-28T22:01:43.594Z,98866.88
2023-02-28T22:04:21.134Z,98860.50
2023-02-28T22:06:53.964Z,98863.84
2023-02-28T22:09:21.581Z,98864.53
2023-02-28T22:11:48.787Z,98861.94
2023-02-28T22:14:16.104Z,98864.16
2023-02-28T22:16:52.852Z,98856.25
2023-02-28T22:19:21.676Z,98850.56
2023-02-28T22:21:50.017Z,98847.13
2023-02-28T22:24:23.474Z,98852.84
2023-02-28T22:26:51.389Z,98847.50
2023-02-28T22:29:18.801Z,98850.03
2023-02-28T22:31:46.143Z,98848.88
2023-02-28T22:34:13.494Z,98858.88
2023-02-28T22:36:42.420Z,98851.31
2023-02-28T22:39:10.407Z,98855.44
2023-02-28T22:41:37.817Z,98849.69
2023-02-28T22:44:07.297Z,98844.75
2023-02-28T22:46:35.887Z,98847.41
2023-02-28T22:49:07.066Z,98843.16
2023-02-28T22:51:35.104Z,98847.19
2023-02-28T22:54:02.699Z,98848.47
2023-02-28T22:56:30.805Z,98844.50
2023-02-28T22:59:00.078Z,98840.91
2023-02-28T23:01:32.790Z,98842.66
2023-02-28T23:03:59.982Z,98845.50
2023-02-28T23:06:33.620Z,98844.75
2023-02-28T23:09:04.345Z,98841.31
2023-02-28T23:11:34.430Z,98840.47
2023-02-28T23:14:01.907Z,98832.50
2023-02-28T23:16:33.899Z,98840.16
2023-02-28T23:19:04.436Z,98847.56
2023-02-28T23:21:31.816Z,98849.00
2023-02-28T23:24:00.966Z,98859.63
2023-02-28T23:26:28.268Z,98856.00
2023-02-28T23:28:55.421Z,98861.53
2023-02-28T23:31:22.562Z,98856.72
2023-02-28T23:33:49.668Z,98850.63
2023-02-28T23:36:17.456Z,98855.97
2023-02-28T23:38:48.078Z,98854.91
2023-02-28T23:41:16.095Z,98853.75
2023-02-28T23:43:43.412Z,98851.22
2023-02-28T23:46:12.083Z,98845.50
2023-02-28T23:48:40.232Z,98820.09
2023-02-28T23:51:09.379Z,98833.41
2023-02-28T23:53:38.707Z,98836.81
2023-02-28T23:56:07.356Z,98828.19
2023-02-28T23:58:35.134Z,98826.34
